Archival Weather

Vermilion Rgnl

Danville, Illinois (KDNV)

Report from: Tuesday, March 26, 2024 9:55 PM CDT
Current time: Sunday, July 14, 2024 4:54 AM CDT

Current weather – Weather history – Daily summaries
Weather forecast

Temperature4.0°C (39.2°F)
Wind chill-1.0°C (30.1°F)
Dew point0.6°C (33.1°F)
Winds 15 kts (7.7 m/s, 17.3 mph) West (280°)
Wind gusts 25 kts (12.9 m/s, 28.8 mph)
Visibility10 mi. (16.1 km)
Clouds Ceiling: Overcast 1,700 ft. (518 m)
Altimeter29.85 in.Hg (1011 mB)
Relative humidity78 %
Density altitude-1,154 ft. (-352 m)
Remarks Fully automated report
Automated weather observing station with precipitation discriminator
Flight conditions Marginal Visual Meteorological Conditions
Raw dataKDNV 270255Z AUTO 28015G25KT 10SM OVC017 04/01 A2985 RMK AO2 T00400006
An error has occurred. This application may no longer respond until reloaded. Reload 🗙